Terminal Aerodrome Forecast
Issued by NWS

Home | Current Version | Previous Version | Text Only | Print | Product List | Glossary On
Versions: 1 2 3 4 5 6 7 8 9 10 11 12 13 14 15
000
FTUS44 KLIX 301120
TAFGPT
TAF
KGPT 301120Z 3012/3112 05003KT P6SM FEW017 SCT050 BKN060
     FM301600 16008KT P6SM VCTS SCT040CB
     FM302300 17005KT P6SM BKN130
     FM311000 VRB03KT P6SM SCT020 BKN030
      TEMPO 3110/3112 3SM BR BKN010=

USA.gov is the U.S. government's official web portal to all federal, state and local government web resources and services.